Nestor — V2FB3 — position and weather

sailwx.info

Track history (hours):
 
Tides and Currents Weather Stations Pressure Air Temp Water Temp Dewpoint Dewpoint Depression Visibility Wind Speed Wind Dir Waves Ship Positions

Nestor

Last reported at 2017-Oct-17 13:52 UTC. Time now 2017-Oct-18 00:29 UTC.
Position N 35°56' W 005°13'.

Length 88 m; draft 5.6 m.

Type: Cargo ship. MMSI: 305620000.

Date/timePositionNaut miles runAvg speedWind from/ knotsBaromVisibWave heightAir tempDewpointWater temp
2017-Oct-17 13:52N 35°56' W 005°13'3 9.6
2017-Oct-17 13:31N 35°55' W 005°17'2 3.8
2017-Oct-17 12:56N 35°54' W 005°19'0 0.0
2017-Oct-17 12:29N 35°54' W 005°19'0 0.0
2017-Oct-17 11:59N 35°54' W 005°19'0 0.0
2017-Oct-17 11:29N 35°54' W 005°19'0 0.0
2017-Oct-17 10:59N 35°54' W 005°19'0 0.0
2017-Oct-17 10:26N 35°54' W 005°19'0 0.0
2017-Oct-17 09:59N 35°54' W 005°19'0 0.0
2017-Oct-17 09:29N 35°54' W 005°19'0 0.0
2017-Oct-17 08:59N 35°54' W 005°19'0 0.0
2017-Oct-17 08:30N 35°54' W 005°19'1 1.4
2017-Oct-17 08:01N 35°54' W 005°19'1 2.7
2017-Oct-17 07:31N 35°55' W 005°20'1 2.2
2017-Oct-17 07:00N 35°56' W 005°21'3 6.9
2017-Oct-17 06:30N 35°57' W 005°25'9 9.4
2017-Oct-17 05:35N 35°55' W 005°35'110.1
2017-Oct-17 05:29N 35°55' W 005°36'5 9.7
2017-Oct-17 05:01N 35°54' W 005°42'219 7.2
2017-Oct-15 22:32N 37°31' W 009°47'1 8.2
2017-Oct-15 22:27N 37°32' W 009°47'10 8.2
2017-Oct-15 21:12N 37°42' W 009°50'6 7.9
2017-Oct-15 20:24N 37°48' W 009°52'3 7.9
2017-Oct-15 20:00N 37°51' W 009°52'4 8.0
2017-Oct-15 19:30N 37°55' W 009°54'4 7.9
2017-Oct-15 19:01N 37°59' W 009°54'4 7.8
2017-Oct-15 18:30N 38°03' W 009°55'4 7.6
2017-Oct-15 18:00N 38°06' W 009°57'4 7.9
2017-Oct-15 17:31N 38°10' W 009°58'4 7.9
2017-Oct-15 17:01N 38°14' W 009°59'4 7.5
2017-Oct-15 16:31N 38°17' W 010°00'4 7.5
2017-Oct-15 16:00N 38°21' W 010°02'4 7.5
2017-Oct-15 15:30N 38°25' W 010°03'4 7.8
2017-Oct-15 15:01N 38°29' W 010°04'8 8.2
2017-Oct-15 14:00N 38°37' W 010°06'4 8.2
2017-Oct-15 13:31N 38°41' W 010°07'4 8.4
2017-Oct-15 13:00N 38°45' W 010°07'15 8.3
2017-Oct-15 11:13N 38°60' W 010°07'2 8.5
2017-Oct-15 11:00N 39°01' W 010°07'4 8.8
2017-Oct-15 10:30N 39°06' W 010°07'5 9.1
2017-Oct-15 10:01N 39°10' W 010°07'5 9.1
2017-Oct-15 09:30N 39°15' W 010°07'32 8.7
2017-Oct-15 05:47N 39°47' W 010°07'  
2017-Oct-12 15:58N 48°03' W 006°29'10 8.8
2017-Oct-12 14:53N 48°12' W 006°22'9 9.2
2017-Oct-12 13:53N 48°20' W 006°15'143 7.7
2017-Oct-11 19:24N 49°50' W 003°26'3 7.4
2017-Oct-11 19:00N 49°51' W 003°22'4 7.1
2017-Oct-11 18:30N 49°53' W 003°17'4 7.1
2017-Oct-11 18:00N 49°55' W 003°13'4 7.4
2017-Oct-11 17:30N 49°57' W 003°08'4 7.3
2017-Oct-11 17:00N 49°59' W 003°03'114 6.7
2017-Oct-11 00:00N 50°30' W 000°11'3 5.3
2017-Oct-10 23:30N 50°31' W 000°07'3 5.6
2017-Oct-10 23:00N 50°32' W 000°03'3 5.9
2017-Oct-10 22:30N 50°33' E 000°01'3 6.5
2017-Oct-10 22:00N 50°33' E 000°06'4 7.3
2017-Oct-10 21:30N 50°34' E 000°12'4 7.9
2017-Oct-10 21:00N 50°36' E 000°18'4 8.5
2017-Oct-10 20:30N 50°37' E 000°24'4 8.8
2017-Oct-10 20:00N 50°38' E 000°31'4 8.8
2017-Oct-10 19:30N 50°40' E 000°37'4 8.9
2017-Oct-10 19:00N 50°43' E 000°43'4 8.8
2017-Oct-10 18:30N 50°45' E 000°48'6 8.4
2017-Oct-10 17:47N 50°48' E 000°56'14 7.4
2017-Oct-10 15:56N 50°57' E 001°13'3 6.1
2017-Oct-10 15:30N 50°59' E 001°16'3 5.8
2017-Oct-10 15:00N 51°01' E 001°20'5 5.4
2017-Oct-10 14:00N 51°04' E 001°26'3 6.2
2017-Oct-10 13:28N 51°06' E 001°30'3 6.8
2017-Oct-10 13:00N 51°08' E 001°34'4 7.9
2017-Oct-10 12:31N 51°11' E 001°39'4 8.7
2017-Oct-10 12:00N 51°14' E 001°44'510.4
2017-Oct-10 11:30N 51°18' E 001°48'510.9
2017-Oct-10 11:01N 51°23' E 001°51'510.4
2017-Oct-10 10:30N 51°28' E 001°56'510.1
2017-Oct-10 10:00N 51°31' E 002°02'7 9.5
2017-Oct-10 09:18N 51°36' E 002°09'3 9.3
2017-Oct-10 08:59N 51°39' E 002°12'47 6.9
2017-Oct-10 02:12N 52°03' E 003°17'2 8.1
2017-Oct-10 01:59N 52°03' E 003°20'4 8.4
2017-Oct-10 01:30N 52°04' E 003°26'4 8.6
2017-Oct-10 01:00N 52°04' E 003°33'4 8.6
2017-Oct-10 00:29N 52°03' E 003°40'4 8.9
2017-Oct-10 00:00N 52°02' E 003°47'4 7.7
2017-Oct-09 23:30N 52°02' E 003°53'510.3
2017-Oct-09 23:00N 52°00' E 004°01'612.0
2017-Oct-09 22:31N 51°57' E 004°10'612.1
2017-Oct-09 22:00N 51°54' E 004°18'2 4.2
2017-Oct-09 21:30N 51°54' E 004°21'0 0.2
2017-Oct-09 21:00N 51°54' E 004°21'0 0.0
2017-Oct-09 20:27N 51°54' E 004°21'0 0.0
2017-Oct-09 19:57N 51°54' E 004°21'0 0.0
2017-Oct-09 19:27N 51°54' E 004°21'0 0.0
2017-Oct-09 19:00N 51°54' E 004°21'0 0.0
2017-Oct-09 18:30N 51°54' E 004°21'0 0.0
2017-Oct-09 18:00N 51°54' E 004°21'0 0.0
2017-Oct-09 17:30N 51°54' E 004°21'0 0.0
2017-Oct-09 17:00N 51°54' E 004°21'0 0.0
2017-Oct-09 16:27N 51°54' E 004°21'0 0.0
2017-Oct-09 15:57N 51°54' E 004°21'0 0.0
2017-Oct-09 15:30N 51°54' E 004°21'0 0.0
2017-Oct-09 15:00N 51°54' E 004°21'0 0.0
2017-Oct-09 14:30N 51°54' E 004°21'0 0.0
2017-Oct-09 13:57N 51°54' E 004°21'0 0.0
2017-Oct-09 13:27N 51°54' E 004°21'0 0.0
2017-Oct-09 13:00N 51°54' E 004°21'0 0.0
2017-Oct-09 12:30N 51°54' E 004°21'0 0.0
2017-Oct-09 11:57N 51°54' E 004°21'0 0.0
2017-Oct-09 11:27N 51°54' E 004°21'0 0.0
2017-Oct-09 11:00N 51°54' E 004°21'0 0.0
2017-Oct-09 10:24N 51°54' E 004°21'0 0.0
2017-Oct-09 10:00N 51°54' E 004°21'0 0.0
2017-Oct-09 09:30N 51°54' E 004°21'0 0.0
2017-Oct-09 09:00N 51°54' E 004°21'0 0.0
2017-Oct-09 08:30N 51°54' E 004°21'0 0.0
2017-Oct-09 08:00N 51°54' E 004°21'0 0.0
2017-Oct-09 07:30N 51°54' E 004°21'0 0.0
2017-Oct-09 07:00N 51°54' E 004°21'0 0.0
2017-Oct-09 06:27N 51°54' E 004°21'0 0.0
2017-Oct-09 06:00N 51°54' E 004°21'0 0.0
2017-Oct-09 05:30N 51°54' E 004°21'0 0.0
2017-Oct-09 05:00N 51°54' E 004°21'0 0.0
2017-Oct-09 04:30N 51°54' E 004°21'0 0.0
2017-Oct-09 04:00N 51°54' E 004°21'0 0.0
2017-Oct-09 03:30N 51°54' E 004°21'0 0.0
2017-Oct-09 03:00N 51°54' E 004°21'0 0.0
2017-Oct-09 02:30N 51°54' E 004°21'0 0.0
2017-Oct-09 02:00N 51°54' E 004°21'0 0.0
2017-Oct-09 01:30N 51°54' E 004°21'0 0.0
2017-Oct-09 01:00N 51°54' E 004°21'0 0.0
2017-Oct-09 00:27N 51°54' E 004°21'0 0.0
2017-Oct-09 00:00N 51°54' E 004°21'0 0.0
2017-Oct-08 23:27N 51°54' E 004°21'0 0.0
2017-Oct-08 23:00N 51°54' E 004°21'0 0.0
2017-Oct-08 22:30N 51°54' E 004°21'0 0.0
2017-Oct-08 22:00N 51°54' E 004°21'0 0.0
2017-Oct-08 21:30N 51°54' E 004°21'0 0.0
2017-Oct-08 20:27N 51°54' E 004°21'0 0.0
2017-Oct-08 20:00N 51°54' E 004°21'0 0.0
2017-Oct-08 19:27N 51°54' E 004°21'0 0.1
2017-Oct-08 19:00N 51°54' E 004°21'2 4.0
2017-Oct-08 18:30N 51°53' E 004°18'1 2.2
2017-Oct-08 17:58N 51°53' E 004°16'0 0.0
2017-Oct-08 17:28N 51°53' E 004°16'0 0.0
2017-Oct-08 16:58N 51°53' E 004°16'0 0.0
2017-Oct-08 16:28N 51°53' E 004°16'0 0.0
2017-Oct-08 15:58N 51°53' E 004°16'0 0.0
2017-Oct-08 15:28N 51°53' E 004°16'0 0.0
2017-Oct-08 14:58N 51°53' E 004°16'0 0.0
2017-Oct-08 14:28N 51°53' E 004°16'0 0.0
2017-Oct-08 13:58N 51°53' E 004°16'0 0.0
2017-Oct-08 13:22N 51°53' E 004°16'0 0.0
2017-Oct-08 12:52N 51°53' E 004°16'0 0.0
2017-Oct-08 12:28N 51°53' E 004°16'0 0.0
2017-Oct-08 11:58N 51°53' E 004°16'0 0.0
2017-Oct-08 11:22N 51°53' E 004°16'0 0.0
2017-Oct-08 10:58N 51°53' E 004°16'0 0.0
2017-Oct-08 10:25N 51°53' E 004°16'0 0.0
2017-Oct-08 10:01N 51°53' E 004°16'0 0.0
2017-Oct-08 09:28N 51°53' E 004°16'0 0.0
2017-Oct-08 08:58N 51°53' E 004°16'0 0.0
2017-Oct-08 08:28N 51°53' E 004°16'0 0.0
2017-Oct-08 07:58N 51°53' E 004°16'0 0.0
2017-Oct-08 07:28N 51°53' E 004°16'0 0.0
2017-Oct-08 06:58N 51°53' E 004°16'0 0.0
2017-Oct-08 06:28N 51°53' E 004°16'0 0.0
2017-Oct-08 05:58N 51°53' E 004°16'0 0.0
2017-Oct-08 05:28N 51°53' E 004°16'0 0.0
2017-Oct-08 04:58N 51°53' E 004°16'0 0.0
2017-Oct-08 04:28N 51°53' E 004°16'0 0.0
2017-Oct-08 03:58N 51°53' E 004°16'0 0.0
2017-Oct-08 03:28N 51°53' E 004°16'0 0.0
2017-Oct-08 02:52N 51°53' E 004°16'0 0.0
2017-Oct-08 02:28N 51°53' E 004°16'0 0.0
2017-Oct-08 01:58N 51°53' E 004°16'0 0.0
2017-Oct-08 01:28N 51°53' E 004°16'0 0.0
2017-Oct-08 00:58N 51°53' E 004°16'0 0.0
2017-Oct-08 00:28N 51°53' E 004°16'0 0.0
2017-Oct-07 23:58N 51°53' E 004°16'0 0.0
2017-Oct-07 23:31N 51°53' E 004°16'0 0.0
2017-Oct-07 22:58N 51°53' E 004°16'0 0.0
2017-Oct-07 22:25N 51°53' E 004°16'0 0.0
2017-Oct-07 21:58N 51°53' E 004°16'0 0.0
2017-Oct-07 21:28N 51°53' E 004°16'0 0.0
2017-Oct-07 20:58N 51°53' E 004°16'0 0.0
2017-Oct-07 20:28N 51°53' E 004°16'0 0.0
2017-Oct-07 19:58N 51°53' E 004°16'0 0.0
2017-Oct-07 19:28N 51°53' E 004°16'0 0.0
2017-Oct-07 18:58N 51°53' E 004°16'0 0.0
2017-Oct-07 18:28N 51°53' E 004°16'0 0.0
2017-Oct-07 17:58N 51°53' E 004°16'0 0.0
2017-Oct-07 17:25N 51°53' E 004°16'0 0.0
2017-Oct-07 16:58N 51°53' E 004°16'0 0.0
2017-Oct-07 16:28N 51°53' E 004°16'0 0.0
2017-Oct-07 15:58N 51°53' E 004°16'0 0.0
2017-Oct-07 15:28N 51°53' E 004°16'0 0.0
2017-Oct-07 14:58N 51°53' E 004°16'0 0.0
2017-Oct-07 14:28N 51°53' E 004°16'0 0.0
2017-Oct-07 13:58N 51°53' E 004°16'  
Track history (hours):
 
Tides and Currents Weather Stations Pressure Air Temp Water Temp Dewpoint Dewpoint Depression Visibility Wind Speed Wind Dir Waves Ship Positions

Nestor

Last reported at 2017-Oct-17 13:52 UTC. Time now 2017-Oct-18 00:29 UTC.
Position N 35°56' W 005°13'.

Length 88 m; draft 5.6 m.

Type: Cargo ship. MMSI: 305620000.

Date/timePositionNaut miles runAvg speedWind from/ knotsBaromVisibWave heightAir tempDewpointWater temp
2017-Oct-17 13:52N 35°56' W 005°13'3 9.6
2017-Oct-17 13:31N 35°55' W 005°17'2 3.8
2017-Oct-17 12:56N 35°54' W 005°19'0 0.0
2017-Oct-17 12:29N 35°54' W 005°19'0 0.0
2017-Oct-17 11:59N 35°54' W 005°19'0 0.0
2017-Oct-17 11:29N 35°54' W 005°19'0 0.0
2017-Oct-17 10:59N 35°54' W 005°19'0 0.0
2017-Oct-17 10:26N 35°54' W 005°19'0 0.0
2017-Oct-17 09:59N 35°54' W 005°19'0 0.0
2017-Oct-17 09:29N 35°54' W 005°19'0 0.0
2017-Oct-17 08:59N 35°54' W 005°19'0 0.0
2017-Oct-17 08:30N 35°54' W 005°19'1 1.4
2017-Oct-17 08:01N 35°54' W 005°19'1 2.7
2017-Oct-17 07:31N 35°55' W 005°20'1 2.2
2017-Oct-17 07:00N 35°56' W 005°21'3 6.9
2017-Oct-17 06:30N 35°57' W 005°25'9 9.4
2017-Oct-17 05:35N 35°55' W 005°35'110.1
2017-Oct-17 05:29N 35°55' W 005°36'5 9.7
2017-Oct-17 05:01N 35°54' W 005°42'219 7.2
2017-Oct-15 22:32N 37°31' W 009°47'1 8.2
2017-Oct-15 22:27N 37°32' W 009°47'10 8.2
2017-Oct-15 21:12N 37°42' W 009°50'6 7.9
2017-Oct-15 20:24N 37°48' W 009°52'3 7.9
2017-Oct-15 20:00N 37°51' W 009°52'4 8.0
2017-Oct-15 19:30N 37°55' W 009°54'4 7.9
2017-Oct-15 19:01N 37°59' W 009°54'4 7.8
2017-Oct-15 18:30N 38°03' W 009°55'4 7.6
2017-Oct-15 18:00N 38°06' W 009°57'4 7.9
2017-Oct-15 17:31N 38°10' W 009°58'4 7.9
2017-Oct-15 17:01N 38°14' W 009°59'4 7.5
2017-Oct-15 16:31N 38°17' W 010°00'4 7.5
2017-Oct-15 16:00N 38°21' W 010°02'4 7.5
2017-Oct-15 15:30N 38°25' W 010°03'4 7.8
2017-Oct-15 15:01N 38°29' W 010°04'8 8.2
2017-Oct-15 14:00N 38°37' W 010°06'4 8.2
2017-Oct-15 13:31N 38°41' W 010°07'4 8.4
2017-Oct-15 13:00N 38°45' W 010°07'15 8.3
2017-Oct-15 11:13N 38°60' W 010°07'2 8.5
2017-Oct-15 11:00N 39°01' W 010°07'4 8.8
2017-Oct-15 10:30N 39°06' W 010°07'5 9.1
2017-Oct-15 10:01N 39°10' W 010°07'5 9.1
2017-Oct-15 09:30N 39°15' W 010°07'32 8.7
2017-Oct-15 05:47N 39°47' W 010°07'  
2017-Oct-12 15:58N 48°03' W 006°29'10 8.8
2017-Oct-12 14:53N 48°12' W 006°22'9 9.2
2017-Oct-12 13:53N 48°20' W 006°15'143 7.7
2017-Oct-11 19:24N 49°50' W 003°26'3 7.4
2017-Oct-11 19:00N 49°51' W 003°22'4 7.1
2017-Oct-11 18:30N 49°53' W 003°17'4 7.1
2017-Oct-11 18:00N 49°55' W 003°13'4 7.4
2017-Oct-11 17:30N 49°57' W 003°08'4 7.3
2017-Oct-11 17:00N 49°59' W 003°03'114 6.7
2017-Oct-11 00:00N 50°30' W 000°11'3 5.3
2017-Oct-10 23:30N 50°31' W 000°07'3 5.6
2017-Oct-10 23:00N 50°32' W 000°03'3 5.9
2017-Oct-10 22:30N 50°33' E 000°01'3 6.5
2017-Oct-10 22:00N 50°33' E 000°06'4 7.3
2017-Oct-10 21:30N 50°34' E 000°12'4 7.9
2017-Oct-10 21:00N 50°36' E 000°18'4 8.5
2017-Oct-10 20:30N 50°37' E 000°24'4 8.8
2017-Oct-10 20:00N 50°38' E 000°31'4 8.8
2017-Oct-10 19:30N 50°40' E 000°37'4 8.9
2017-Oct-10 19:00N 50°43' E 000°43'4 8.8
2017-Oct-10 18:30N 50°45' E 000°48'6 8.4
2017-Oct-10 17:47N 50°48' E 000°56'14 7.4
2017-Oct-10 15:56N 50°57' E 001°13'3 6.1
2017-Oct-10 15:30N 50°59' E 001°16'3 5.8
2017-Oct-10 15:00N 51°01' E 001°20'5 5.4
2017-Oct-10 14:00N 51°04' E 001°26'3 6.2
2017-Oct-10 13:28N 51°06' E 001°30'3 6.8
2017-Oct-10 13:00N 51°08' E 001°34'4 7.9
2017-Oct-10 12:31N 51°11' E 001°39'4 8.7
2017-Oct-10 12:00N 51°14' E 001°44'510.4
2017-Oct-10 11:30N 51°18' E 001°48'510.9
2017-Oct-10 11:01N 51°23' E 001°51'510.4
2017-Oct-10 10:30N 51°28' E 001°56'510.1
2017-Oct-10 10:00N 51°31' E 002°02'7 9.5
2017-Oct-10 09:18N 51°36' E 002°09'3 9.3
2017-Oct-10 08:59N 51°39' E 002°12'47 6.9
2017-Oct-10 02:12N 52°03' E 003°17'2 8.1
2017-Oct-10 01:59N 52°03' E 003°20'4 8.4
2017-Oct-10 01:30N 52°04' E 003°26'4 8.6
2017-Oct-10 01:00N 52°04' E 003°33'4 8.6
2017-Oct-10 00:29N 52°03' E 003°40'4 8.9
2017-Oct-10 00:00N 52°02' E 003°47'4 7.7
2017-Oct-09 23:30N 52°02' E 003°53'510.3
2017-Oct-09 23:00N 52°00' E 004°01'612.0
2017-Oct-09 22:31N 51°57' E 004°10'612.1
2017-Oct-09 22:00N 51°54' E 004°18'2 4.2
2017-Oct-09 21:30N 51°54' E 004°21'0 0.2
2017-Oct-09 21:00N 51°54' E 004°21'0 0.0
2017-Oct-09 20:27N 51°54' E 004°21'0 0.0
2017-Oct-09 19:57N 51°54' E 004°21'0 0.0
2017-Oct-09 19:27N 51°54' E 004°21'0 0.0
2017-Oct-09 19:00N 51°54' E 004°21'0 0.0
2017-Oct-09 18:30N 51°54' E 004°21'0 0.0
2017-Oct-09 18:00N 51°54' E 004°21'0 0.0
2017-Oct-09 17:30N 51°54' E 004°21'0 0.0
2017-Oct-09 17:00N 51°54' E 004°21'0 0.0
2017-Oct-09 16:27N 51°54' E 004°21'0 0.0
2017-Oct-09 15:57N 51°54' E 004°21'0 0.0
2017-Oct-09 15:30N 51°54' E 004°21'0 0.0
2017-Oct-09 15:00N 51°54' E 004°21'0 0.0
2017-Oct-09 14:30N 51°54' E 004°21'0 0.0
2017-Oct-09 13:57N 51°54' E 004°21'0 0.0
2017-Oct-09 13:27N 51°54' E 004°21'0 0.0
2017-Oct-09 13:00N 51°54' E 004°21'0 0.0
2017-Oct-09 12:30N 51°54' E 004°21'0 0.0
2017-Oct-09 11:57N 51°54' E 004°21'0 0.0
2017-Oct-09 11:27N 51°54' E 004°21'0 0.0
2017-Oct-09 11:00N 51°54' E 004°21'0 0.0
2017-Oct-09 10:24N 51°54' E 004°21'0 0.0
2017-Oct-09 10:00N 51°54' E 004°21'0 0.0
2017-Oct-09 09:30N 51°54' E 004°21'0 0.0
2017-Oct-09 09:00N 51°54' E 004°21'0 0.0
2017-Oct-09 08:30N 51°54' E 004°21'0 0.0
2017-Oct-09 08:00N 51°54' E 004°21'0 0.0
2017-Oct-09 07:30N 51°54' E 004°21'0 0.0
2017-Oct-09 07:00N 51°54' E 004°21'0 0.0
2017-Oct-09 06:27N 51°54' E 004°21'0 0.0
2017-Oct-09 06:00N 51°54' E 004°21'0 0.0
2017-Oct-09 05:30N 51°54' E 004°21'0 0.0
2017-Oct-09 05:00N 51°54' E 004°21'0 0.0
2017-Oct-09 04:30N 51°54' E 004°21'0 0.0
2017-Oct-09 04:00N 51°54' E 004°21'0 0.0
2017-Oct-09 03:30N 51°54' E 004°21'0 0.0
2017-Oct-09 03:00N 51°54' E 004°21'0 0.0
2017-Oct-09 02:30N 51°54' E 004°21'0 0.0
2017-Oct-09 02:00N 51°54' E 004°21'0 0.0
2017-Oct-09 01:30N 51°54' E 004°21'0 0.0
2017-Oct-09 01:00N 51°54' E 004°21'0 0.0
2017-Oct-09 00:27N 51°54' E 004°21'0 0.0
2017-Oct-09 00:00N 51°54' E 004°21'0 0.0
2017-Oct-08 23:27N 51°54' E 004°21'0 0.0
2017-Oct-08 23:00N 51°54' E 004°21'0 0.0
2017-Oct-08 22:30N 51°54' E 004°21'0 0.0
2017-Oct-08 22:00N 51°54' E 004°21'0 0.0
2017-Oct-08 21:30N 51°54' E 004°21'0 0.0
2017-Oct-08 20:27N 51°54' E 004°21'0 0.0
2017-Oct-08 20:00N 51°54' E 004°21'0 0.0
2017-Oct-08 19:27N 51°54' E 004°21'0 0.1
2017-Oct-08 19:00N 51°54' E 004°21'2 4.0
2017-Oct-08 18:30N 51°53' E 004°18'1 2.2
2017-Oct-08 17:58N 51°53' E 004°16'0 0.0
2017-Oct-08 17:28N 51°53' E 004°16'0 0.0
2017-Oct-08 16:58N 51°53' E 004°16'0 0.0
2017-Oct-08 16:28N 51°53' E 004°16'0 0.0
2017-Oct-08 15:58N 51°53' E 004°16'0 0.0
2017-Oct-08 15:28N 51°53' E 004°16'0 0.0
2017-Oct-08 14:58N 51°53' E 004°16'0 0.0
2017-Oct-08 14:28N 51°53' E 004°16'0 0.0
2017-Oct-08 13:58N 51°53' E 004°16'0 0.0
2017-Oct-08 13:22N 51°53' E 004°16'0 0.0
2017-Oct-08 12:52N 51°53' E 004°16'0 0.0
2017-Oct-08 12:28N 51°53' E 004°16'0 0.0
2017-Oct-08 11:58N 51°53' E 004°16'0 0.0
2017-Oct-08 11:22N 51°53' E 004°16'0 0.0
2017-Oct-08 10:58N 51°53' E 004°16'0 0.0
2017-Oct-08 10:25N 51°53' E 004°16'0 0.0
2017-Oct-08 10:01N 51°53' E 004°16'0 0.0
2017-Oct-08 09:28N 51°53' E 004°16'0 0.0
2017-Oct-08 08:58N 51°53' E 004°16'0 0.0
2017-Oct-08 08:28N 51°53' E 004°16'0 0.0
2017-Oct-08 07:58N 51°53' E 004°16'0 0.0
2017-Oct-08 07:28N 51°53' E 004°16'0 0.0
2017-Oct-08 06:58N 51°53' E 004°16'0 0.0
2017-Oct-08 06:28N 51°53' E 004°16'0 0.0
2017-Oct-08 05:58N 51°53' E 004°16'0 0.0
2017-Oct-08 05:28N 51°53' E 004°16'0 0.0
2017-Oct-08 04:58N 51°53' E 004°16'0 0.0
2017-Oct-08 04:28N 51°53' E 004°16'0 0.0
2017-Oct-08 03:58N 51°53' E 004°16'0 0.0
2017-Oct-08 03:28N 51°53' E 004°16'0 0.0
2017-Oct-08 02:52N 51°53' E 004°16'0 0.0
2017-Oct-08 02:28N 51°53' E 004°16'0 0.0
2017-Oct-08 01:58N 51°53' E 004°16'0 0.0
2017-Oct-08 01:28N 51°53' E 004°16'0 0.0
2017-Oct-08 00:58N 51°53' E 004°16'0 0.0
2017-Oct-08 00:28N 51°53' E 004°16'0 0.0
2017-Oct-07 23:58N 51°53' E 004°16'0 0.0
2017-Oct-07 23:31N 51°53' E 004°16'0 0.0
2017-Oct-07 22:58N 51°53' E 004°16'0 0.0
2017-Oct-07 22:25N 51°53' E 004°16'0 0.0
2017-Oct-07 21:58N 51°53' E 004°16'0 0.0
2017-Oct-07 21:28N 51°53' E 004°16'0 0.0
2017-Oct-07 20:58N 51°53' E 004°16'0 0.0
2017-Oct-07 20:28N 51°53' E 004°16'0 0.0
2017-Oct-07 19:58N 51°53' E 004°16'0 0.0
2017-Oct-07 19:28N 51°53' E 004°16'0 0.0
2017-Oct-07 18:58N 51°53' E 004°16'0 0.0
2017-Oct-07 18:28N 51°53' E 004°16'0 0.0
2017-Oct-07 17:58N 51°53' E 004°16'0 0.0
2017-Oct-07 17:25N 51°53' E 004°16'0 0.0
2017-Oct-07 16:58N 51°53' E 004°16'0 0.0
2017-Oct-07 16:28N 51°53' E 004°16'0 0.0
2017-Oct-07 15:58N 51°53' E 004°16'0 0.0
2017-Oct-07 15:28N 51°53' E 004°16'0 0.0
2017-Oct-07 14:58N 51°53' E 004°16'0 0.0
2017-Oct-07 14:28N 51°53' E 004°16'0 0.0
2017-Oct-07 13:58N 51°53' E 004°16'  

Dump ship's entire track history